Open Full Screen Window  High Contrast Mode
Wind Gusting 00 knots
09
September 26, 2016 8:55 PM CDT
Weather Information
Wind Direction
  310 °
Wind Speed
  09 kt (10 mph)
Wind Gust
  00 kt (0 mph)
Altimeter
30.05 in
Visibility
10 SM
Temperature
11° C
52° F
Dewpoint
00° C
32° F
Humidity
47%
1hr Rain Fall
00.00 in.
24hr Rain Fall
00.00 in.
Sky Condition
Clear
VFR

METAR KMDS 270155Z AUTO 31009KT 10SM CLR 11/00 A3005 RMK AO2

*Background is not an actual portrayal of the airport.